Time;durP1;ratioP1;P1;durP2;ratioP2;P2;SDS_P1;SDS_P2;PMS_P1;PMS_P2;Temp;Humidity;BMP_temperature;BMP_pressure;BME280_temperature;BME280_humidity;BME280_pressure;Samples;Min_cycle;Max_cycle;Signal;HPM_P1;HPM_P2
2021/06/11 00:02:20;;;;;;;28.10;21.27;;;12.90;99.90;;;;;;4973514;28;20030;-81
2021/06/11 00:04:45;;;;;;;33.35;21.20;;;12.90;99.90;;;;;;4973512;28;20435;-81
2021/06/11 00:07:11;;;;;;;28.63;22.10;;;12.80;99.90;;;;;;4989260;28;20031;-81
2021/06/11 00:09:36;;;;;;;31.13;24.17;;;12.80;99.90;;;;;;4973617;28;20029;-80
2021/06/11 00:12:03;;;;;;;40.05;27.90;;;12.80;99.90;;;;;;4974644;28;20027;-81
2021/06/11 00:14:28;;;;;;;34.22;24.60;;;12.70;99.90;;;;;;4973249;28;20022;-81
2021/06/11 00:16:54;;;;;;;36.58;26.00;;;12.70;99.90;;;;;;4974350;28;20158;-81
2021/06/11 00:19:20;;;;;;;39.15;28.08;;;12.70;99.90;;;;;;4973333;28;20042;-80
2021/06/11 00:21:45;;;;;;;37.15;28.83;;;12.70;99.90;;;;;;4973227;28;20574;-81
2021/06/11 00:24:11;;;;;;;39.42;30.40;;;12.70;99.90;;;;;;4974280;28;20066;-81
2021/06/11 00:26:37;;;;;;;38.17;29.80;;;12.60;99.90;;;;;;4974640;28;20027;-81
2021/06/11 00:29:03;;;;;;;44.15;33.55;;;12.60;99.90;;;;;;4974196;28;20042;-81
2021/06/11 00:31:28;;;;;;;46.80;33.88;;;12.60;99.90;;;;;;4974315;28;20038;-81
2021/06/11 00:33:54;;;;;;;42.80;32.78;;;12.60;99.90;;;;;;4972982;28;20053;-81
2021/06/11 00:36:20;;;;;;;44.95;33.90;;;12.60;99.90;;;;;;4974123;28;20039;-81
2021/06/11 00:38:45;;;;;;;46.90;33.78;;;12.60;99.90;;;;;;4973676;28;20066;-81
2021/06/11 00:41:11;;;;;;;51.10;38.13;;;12.60;99.90;;;;;;4972938;28;20038;-80
2021/06/11 00:43:37;;;;;;;48.35;34.75;;;12.60;99.90;;;;;;4974102;28;20440;-81
2021/06/11 00:46:02;;;;;;;47.35;34.60;;;12.60;99.90;;;;;;4973931;28;20030;-81
2021/06/11 00:48:28;;;;;;;42.92;32.13;;;12.60;99.90;;;;;;4973879;28;20058;-81
2021/06/11 00:50:53;;;;;;;41.83;30.25;;;12.50;99.90;;;;;;4973917;28;20547;-81
2021/06/11 00:53:19;;;;;;;48.72;36.13;;;12.50;99.90;;;;;;4988959;28;20526;-81
2021/06/11 00:55:45;;;;;;;49.08;35.95;;;12.50;99.90;;;;;;4973749;28;20495;-81
2021/06/11 00:58:15;;;;;;;47.28;31.92;;;12.50;99.90;;;;;;4969706;28;20027;-81
2021/06/11 01:00:43;;;;;;;45.72;33.03;;;12.50;99.90;;;;;;4973287;28;20514;-81
2021/06/11 01:03:09;;;;;;;46.60;31.63;;;12.50;99.90;;;;;;4973511;28;20045;-80
2021/06/11 01:05:35;;;;;;;43.38;32.53;;;12.50;99.90;;;;;;4988411;28;20483;-81
2021/06/11 01:08:02;;;;;;;40.05;30.80;;;12.50;99.90;;;;;;4973693;28;20027;-81
2021/06/11 01:10:29;;;;;;;47.78;34.28;;;12.40;99.90;;;;;;4988403;28;20022;-81
2021/06/11 01:12:56;;;;;;;47.03;34.58;;;12.40;99.90;;;;;;4973206;28;20106;-81
2021/06/11 01:15:22;;;;;;;49.47;34.38;;;12.30;99.90;;;;;;4972099;28;20033;-80
2021/06/11 01:17:49;;;;;;;41.95;31.67;;;12.30;99.90;;;;;;4972182;28;20403;-80
2021/06/11 01:20:17;;;;;;;41.10;30.45;;;12.20;99.90;;;;;;4968837;28;20039;-81
2021/06/11 01:23:04;;;;;;;40.92;30.95;;;12.20;99.90;;;;;;4969098;28;20050;-81
2021/06/11 01:25:35;;;;;;;44.88;32.35;;;12.10;99.90;;;;;;4968701;28;20488;-81
2021/06/11 01:28:03;;;;;;;52.17;39.00;;;12.10;99.90;;;;;;4968797;28;20167;-80
2021/06/11 01:30:32;;;;;;;48.88;36.47;;;12.10;99.90;;;;;;4967460;28;20033;-81
2021/06/11 01:32:58;;;;;;;48.53;34.60;;;12.10;99.90;;;;;;4973310;28;20035;-81
2021/06/11 01:35:29;;;;;;;49.67;33.85;;;12.00;99.90;;;;;;4973199;28;20102;-80
2021/06/11 01:37:59;;;;;;;39.17;29.48;;;12.10;99.90;;;;;;4973374;28;20066;-80
2021/06/11 01:40:24;;;;;;;38.22;27.70;;;12.10;99.90;;;;;;4972979;28;20039;-80
2021/06/11 01:42:51;;;;;;;34.42;25.05;;;12.10;99.90;;;;;;4973125;28;20038;-81
2021/06/11 01:45:17;;;;;;;38.70;29.45;;;12.00;99.90;;;;;;4971707;28;20038;-81
2021/06/11 01:47:49;;;;;;;39.78;29.48;;;12.00;99.90;;;;;;4972721;28;20078;-80
2021/06/11 01:50:19;;;;;;;36.53;24.92;;;11.90;99.90;;;;;;4973250;28;20089;-81
2021/06/11 01:52:46;;;;;;;34.00;24.95;;;11.90;99.90;;;;;;4973193;28;20395;-81
2021/06/11 01:55:12;;;;;;;39.00;27.30;;;11.90;99.90;;;;;;4972890;28;20023;-81
2021/06/11 01:57:40;;;;;;;44.55;31.42;;;11.90;99.90;;;;;;4972764;28;20779;-80
2021/06/11 02:00:06;;;;;;;43.92;30.75;;;11.90;99.90;;;;;;4988031;28;20023;-81
2021/06/11 02:02:34;;;;;;;44.03;30.48;;;12.00;99.90;;;;;;4972974;28;20034;-81
2021/06/11 02:05:01;;;;;;;44.38;31.95;;;12.00;99.90;;;;;;4971589;28;20122;-81
2021/06/11 02:07:27;;;;;;;43.78;30.70;;;12.00;99.90;;;;;;4972733;28;20069;-80
2021/06/11 02:09:53;;;;;;;41.92;31.77;;;12.00;99.90;;;;;;4972502;28;20085;-81
2021/06/11 02:12:21;;;;;;;47.90;33.15;;;12.00;99.90;;;;;;4972830;28;20048;-80
2021/06/11 02:14:48;;;;;;;48.60;32.28;;;12.00;99.90;;;;;;4972781;28;20106;-80
2021/06/11 02:17:15;;;;;;;48.55;34.53;;;11.90;99.90;;;;;;4971220;28;20027;-80
2021/06/11 02:19:41;;;;;;;47.42;33.80;;;11.90;99.90;;;;;;4971919;28;20039;-80
2021/06/11 02:22:16;;;;;;;43.53;29.98;;;11.90;99.90;;;;;;4972124;28;20475;-81
2021/06/11 02:24:42;;;;;;;42.30;29.27;;;11.90;99.90;;;;;;4973481;28;20027;-80
2021/06/11 02:27:09;;;;;;;40.75;29.13;;;11.80;99.90;;;;;;4976594;28;20038;-80
2021/06/11 02:29:35;;;;;;;47.45;31.17;;;11.80;99.90;;;;;;4976301;28;20022;-80
2021/06/11 02:32:02;;;;;;;47.10;31.33;;;11.80;99.90;;;;;;4975026;28;20027;-80
2021/06/11 02:34:28;;;;;;;48.60;32.88;;;11.80;99.90;;;;;;4976410;28;20023;-80
2021/06/11 02:36:54;;;;;;;40.35;29.50;;;11.80;99.90;;;;;;4976508;28;20532;-80
2021/06/11 02:39:20;;;;;;;49.03;34.25;;;11.90;99.90;;;;;;4990924;28;20042;-80
2021/06/11 02:41:48;;;;;;;44.58;31.92;;;11.80;99.90;;;;;;4975145;28;20030;-81
2021/06/11 02:44:14;;;;;;;45.08;33.10;;;11.90;99.90;;;;;;4976135;28;20030;-80
2021/06/11 02:46:51;;;;;;;53.22;38.00;;;11.90;99.90;;;;;;4976368;28;20535;-81
2021/06/11 02:49:25;;;;;;;63.85;41.30;;;11.90;99.90;;;;;;4976177;28;20055;-80
2021/06/11 02:51:56;;;;;;;67.07;42.22;;;12.00;99.90;;;;;;4976182;28;20155;-80
2021/06/11 02:54:28;;;;;;;72.90;43.72;;;12.00;99.90;;;;;;4976059;28;20051;-80
2021/06/11 02:56:58;;;;;;;61.97;42.20;;;12.10;99.90;;;;;;4976027;28;20031;-81
2021/06/11 02:59:31;;;;;;;85.93;52.28;;;12.00;99.90;;;;;;4975700;28;20023;-80
2021/06/11 03:02:04;;;;;;;52.28;38.13;;;12.10;99.90;;;;;;4976138;28;20106;-81
2021/06/11 03:04:31;;;;;;;78.03;46.60;;;12.10;99.90;;;;;;4975605;28;20046;-80
2021/06/11 03:06:58;;;;;;;90.70;53.88;;;12.20;99.90;;;;;;4975914;28;20023;-80
2021/06/11 03:09:26;;;;;;;88.35;50.00;;;12.30;99.90;;;;;;4974383;28;20483;-81
2021/06/11 03:11:58;;;;;;;88.45;51.58;;;12.30;99.90;;;;;;4975299;28;20027;-80
2021/06/11 03:14:26;;;;;;;103.53;54.50;;;12.30;99.90;;;;;;4990590;28;20031;-80
2021/06/11 03:16:57;;;;;;;86.50;48.88;;;12.40;99.90;;;;;;4975748;28;20391;-80
2021/06/11 03:19:28;;;;;;;91.38;52.65;;;12.40;99.90;;;;;;4990440;28;20026;-80
2021/06/11 03:22:06;;;;;;;82.00;51.47;;;12.40;99.90;;;;;;4975798;28;20034;-80
2021/06/11 03:24:54;;;;;;;75.85;47.15;;;12.50;99.90;;;;;;4975375;28;20377;-80
2021/06/11 03:27:26;;;;;;;70.25;40.38;;;12.40;99.90;;;;;;4968066;28;20485;-80
2021/06/11 03:30:04;;;;;;;58.05;37.45;;;12.30;99.90;;;;;;4975367;28;20423;-80
2021/06/11 03:32:35;;;;;;;57.60;36.20;;;12.30;99.90;;;;;;4975509;28;20157;-80
2021/06/11 03:35:04;;;;;;;69.10;41.58;;;12.30;99.90;;;;;;4974802;28;20030;-80
2021/06/11 03:37:32;;;;;;;59.80;38.22;;;12.20;99.90;;;;;;4975454;28;20101;-80
2021/06/11 03:40:00;;;;;;;51.97;34.60;;;12.20;99.90;;;;;;4975129;28;20140;-80
2021/06/11 03:42:28;;;;;;;55.67;34.90;;;12.20;99.90;;;;;;4974237;28;20612;-80
2021/06/11 03:44:56;;;;;;;64.05;40.63;;;12.30;99.90;;;;;;4989901;28;20049;-80
2021/06/11 03:47:25;;;;;;;61.58;36.08;;;12.30;99.90;;;;;;4975071;28;20034;-79
2021/06/11 03:49:56;;;;;;;69.50;40.67;;;12.30;99.90;;;;;;4975115;28;20364;-80
2021/06/11 03:52:26;;;;;;;84.97;48.38;;;12.30;99.90;;;;;;4974927;28;20031;-79
2021/06/11 03:54:55;;;;;;;84.03;49.10;;;12.40;99.90;;;;;;4974830;28;20033;-80
2021/06/11 03:57:26;;;;;;;92.72;53.25;;;12.50;99.90;;;;;;4974925;28;20483;-80
2021/06/11 03:59:53;;;;;;;83.38;48.83;;;12.60;99.90;;;;;;4990041;28;20101;-80
2021/06/11 04:02:19;;;;;;;87.90;50.90;;;12.60;99.90;;;;;;4974815;28;20049;-80
2021/06/11 04:04:44;;;;;;;105.68;59.50;;;12.70;99.90;;;;;;4974462;28;20488;-80
2021/06/11 04:07:16;;;;;;;111.93;64.95;;;12.80;99.90;;;;;;4974705;28;20027;-80
2021/06/11 04:09:48;;;;;;;97.40;54.38;;;12.90;99.90;;;;;;4974781;28;20043;-80
2021/06/11 04:12:24;;;;;;;117.97;66.07;;;13.00;99.90;;;;;;4974539;28;20046;-80
2021/06/11 04:14:52;;;;;;;113.10;61.38;;;13.10;99.90;;;;;;4973885;28;20061;-79
2021/06/11 04:17:24;;;;;;;120.18;65.63;;;13.20;99.90;;;;;;4973258;28;20516;-80
2021/06/11 04:19:55;;;;;;;138.07;70.35;;;13.30;99.90;;;;;;4974647;28;20394;-80
2021/06/11 04:22:27;;;;;;;135.05;71.03;;;13.30;99.90;;;;;;4973053;28;20122;-80
2021/06/11 04:24:55;;;;;;;118.95;64.88;;;13.50;99.90;;;;;;4974212;28;20494;-80
2021/06/11 04:27:22;;;;;;;119.32;63.35;;;13.50;99.90;;;;;;4974277;28;20019;-80
2021/06/11 04:29:48;;;;;;;130.27;70.07;;;13.70;99.90;;;;;;4974424;28;20034;-80
2021/06/11 04:32:14;;;;;;;120.40;64.93;;;13.70;99.90;;;;;;4974145;28;20023;-80
2021/06/11 04:34:40;;;;;;;110.63;63.35;;;13.80;99.90;;;;;;4974138;28;20027;-80
2021/06/11 04:37:06;;;;;;;107.63;59.85;;;13.90;99.90;;;;;;4989094;28;20038;-80
2021/06/11 04:39:32;;;;;;;115.13;62.88;;;14.00;99.90;;;;;;4989070;28;20443;-80
2021/06/11 04:41:57;;;;;;;168.02;83.03;;;14.10;99.90;;;;;;4974102;28;20042;-80
2021/06/11 04:44:23;;;;;;;139.55;71.07;;;14.30;99.90;;;;;;4973569;28;20035;-79
2021/06/11 04:46:49;;;;;;;163.02;82.18;;;14.50;99.90;;;;;;4972429;28;20539;-80
2021/06/11 04:49:15;;;;;;;138.70;73.82;;;14.60;99.90;;;;;;4973700;28;20065;-80
2021/06/11 04:51:40;;;;;;;149.63;76.55;;;14.80;99.90;;;;;;4974029;28;20031;-80
2021/06/11 04:54:06;;;;;;;176.48;87.75;;;14.90;99.90;;;;;;4972946;28;20049;-80
2021/06/11 04:56:32;;;;;;;183.38;89.50;;;15.10;99.90;;;;;;4988779;28;20089;-80
2021/06/11 04:59:00;;;;;;;165.93;84.00;;;15.30;99.90;;;;;;4973829;28;20026;-80
2021/06/11 05:01:25;;;;;;;167.73;85.90;;;15.40;99.90;;;;;;4973856;28;20494;-80
2021/06/11 05:03:51;;;;;;;151.43;81.75;;;15.50;99.90;;;;;;4968794;28;20118;-80
2021/06/11 05:06:17;;;;;;;146.90;79.97;;;15.70;99.90;;;;;;4954482;28;20170;-80
2021/06/11 05:08:43;;;;;;;149.00;79.30;;;15.80;99.90;;;;;;4954394;28;20015;-80
2021/06/11 05:11:09;;;;;;;133.50;75.60;;;15.90;99.90;;;;;;4954588;29;20496;-80
2021/06/11 05:13:35;;;;;;;132.27;73.15;;;16.00;99.90;;;;;;4973176;28;20387;-80
2021/06/11 05:16:00;;;;;;;123.32;71.15;;;16.10;99.90;;;;;;4972909;28;20031;-80
2021/06/11 05:18:27;;;;;;;123.47;73.20;;;16.10;99.90;;;;;;4973248;28;20027;-80
2021/06/11 05:20:53;;;;;;;108.93;66.22;;;16.30;99.90;;;;;;4973460;28;20030;-81
2021/06/11 05:23:19;;;;;;;103.22;60.03;;;16.50;99.90;;;;;;4972189;28;20023;-80
2021/06/11 05:25:47;;;;;;;95.85;59.22;;;16.40;99.90;;;;;;4972873;28;20511;-80
2021/06/11 05:28:14;;;;;;;98.00;59.65;;;16.60;99.90;;;;;;4987848;28;20035;-80
2021/06/11 05:30:39;;;;;;;79.40;54.92;;;16.70;99.90;;;;;;4973361;28;20026;-80
2021/06/11 05:33:05;;;;;;;82.47;53.75;;;16.80;99.90;;;;;;4973313;28;20098;-80
2021/06/11 05:35:31;;;;;;;91.50;60.35;;;16.90;99.90;;;;;;4972916;28;20037;-80
2021/06/11 05:37:58;;;;;;;60.88;45.00;;;17.00;99.90;;;;;;4973105;28;20035;-81
2021/06/11 05:40:24;;;;;;;68.30;46.70;;;17.30;99.90;;;;;;4971906;28;20392;-80
2021/06/11 05:42:50;;;;;;;53.42;37.58;;;17.40;99.90;;;;;;4988176;28;20027;-80
2021/06/11 05:45:16;;;;;;;53.05;35.58;;;17.50;99.90;;;;;;4972924;28;20562;-80
2021/06/11 05:47:41;;;;;;;53.60;37.58;;;17.60;99.90;;;;;;4972807;28;20038;-80
2021/06/11 05:50:08;;;;;;;33.75;26.10;;;17.80;99.90;;;;;;4971911;28;20027;-81
2021/06/11 05:52:35;;;;;;;21.65;14.32;;;17.90;99.90;;;;;;4973109;28;20077;-81
2021/06/11 05:55:01;;;;;;;21.55;15.98;;;18.00;99.90;;;;;;4987834;28;20038;-80
2021/06/11 05:57:26;;;;;;;22.48;15.55;;;18.10;99.90;;;;;;4971721;28;20039;-81
2021/06/11 05:59:54;;;;;;;20.23;15.65;;;18.50;99.90;;;;;;4976030;28;20047;-81
2021/06/11 06:02:20;;;;;;;22.45;16.05;;;18.70;99.90;;;;;;4990246;28;20034;-80
2021/06/11 06:04:46;;;;;;;21.95;15.93;;;18.70;99.90;;;;;;4976497;28;20030;-81
2021/06/11 06:07:11;;;;;;;23.92;16.10;;;18.90;99.90;;;;;;4976350;28;20031;-82
2021/06/11 06:09:37;;;;;;;20.88;15.30;;;19.10;99.90;;;;;;4976783;28;20023;-81
2021/06/11 06:12:03;;;;;;;19.08;14.43;;;19.00;99.90;;;;;;4976623;28;20518;-81
2021/06/11 06:14:28;;;;;;;20.45;13.85;;;19.20;99.90;;;;;;4976537;28;20491;-80
2021/06/11 06:16:54;;;;;;;13.38;10.95;;;19.20;99.90;;;;;;4974362;28;20050;-81
2021/06/11 06:19:19;;;;;;;18.65;11.18;;;19.40;99.90;;;;;;4967115;28;20031;-81
2021/06/11 06:21:45;;;;;;;18.52;11.98;;;19.40;99.90;;;;;;4972771;28;20031;-82
2021/06/11 06:24:10;;;;;;;16.15;11.65;;;19.60;99.90;;;;;;4971073;28;20567;-81
2021/06/11 06:26:37;;;;;;;18.15;12.68;;;19.70;99.90;;;;;;4972454;28;20082;-81
2021/06/11 06:29:03;;;;;;;16.85;13.13;;;19.70;99.90;;;;;;4972636;28;20038;-82
2021/06/11 06:31:28;;;;;;;15.60;12.43;;;19.80;99.90;;;;;;4971008;28;20022;-82
2021/06/11 06:33:54;;;;;;;13.18;11.38;;;20.00;99.90;;;;;;4972462;28;20066;-82
2021/06/11 06:36:19;;;;;;;18.00;11.77;;;20.00;99.90;;;;;;4971773;28;20524;-82
2021/06/11 06:38:46;;;;;;;17.80;12.98;;;20.10;99.90;;;;;;4972052;28;20399;-81
2021/06/11 06:41:12;;;;;;;18.15;11.43;;;20.20;99.90;;;;;;4971230;28;20106;-82
2021/06/11 06:43:37;;;;;;;15.45;11.68;;;20.10;99.90;;;;;;4972001;28;20122;-83
2021/06/11 06:46:05;;;;;;;15.60;9.50;;;20.00;99.90;;;;;;4971772;28;20027;-82
2021/06/11 06:48:31;;;;;;;14.23;9.65;;;20.10;99.90;;;;;;4970453;28;20057;-82
2021/06/11 06:50:57;;;;;;;16.35;11.52;;;20.00;99.90;;;;;;4971554;28;20050;-79
2021/06/11 06:53:23;;;;;;;14.20;9.95;;;19.90;99.90;;;;;;4986675;28;20074;-81
2021/06/11 06:55:49;;;;;;;11.82;9.57;;;19.80;99.90;;;;;;4971681;28;20030;-82
2021/06/11 06:58:14;;;;;;;11.50;9.13;;;20.00;99.90;;;;;;4966280;28;20053;-80
2021/06/11 07:00:40;;;;;;;15.85;8.90;;;20.30;99.90;;;;;;4990865;28;20027;-81
2021/06/11 07:03:06;;;;;;;10.02;8.05;;;20.20;99.90;;;;;;4971750;28;20041;-81
2021/06/11 07:05:33;;;;;;;11.10;7.00;;;20.10;99.90;;;;;;4970357;28;20034;-79
2021/06/11 07:07:58;;;;;;;11.45;7.43;;;20.00;99.90;;;;;;4970457;28;20046;-80
2021/06/11 07:10:24;;;;;;;9.13;7.53;;;20.10;99.90;;;;;;4974710;28;20062;-82
2021/06/11 07:12:50;;;;;;;15.55;7.60;;;20.20;99.90;;;;;;4971440;28;20037;-81
2021/06/11 07:15:16;;;;;;;10.63;7.80;;;20.30;99.90;;;;;;4969911;28;20038;-81
2021/06/11 07:17:42;;;;;;;10.32;7.45;;;20.30;99.90;;;;;;4970221;28;20034;-81
2021/06/11 07:20:09;;;;;;;11.88;7.18;;;20.50;99.90;;;;;;4969601;28;20030;-81
2021/06/11 07:22:35;;;;;;;12.27;7.65;;;20.60;99.90;;;;;;4970854;28;20030;-80
2021/06/11 07:25:05;;;;;;;11.57;8.10;;;20.70;99.90;;;;;;4970556;28;20041;-81
2021/06/11 07:27:32;;;;;;;12.68;7.80;;;20.70;99.90;;;;;;4972074;28;20361;-81
2021/06/11 07:30:04;;;;;;;10.50;7.53;;;20.80;99.90;;;;;;4969427;28;20027;-82
2021/06/11 07:32:29;;;;;;;9.93;8.20;;;20.90;99.90;;;;;;4974755;28;20022;-80
2021/06/11 07:34:55;;;;;;;10.88;7.10;;;21.00;99.90;;;;;;4970591;28;20081;-80
2021/06/11 07:37:21;;;;;;;13.60;8.98;;;21.20;99.90;;;;;;4968974;28;20031;-79
2021/06/11 07:39:46;;;;;;;11.23;8.15;;;20.90;99.90;;;;;;4970026;28;20459;-79
2021/06/11 07:42:14;;;;;;;15.80;8.93;;;20.70;99.90;;;;;;4969686;28;20033;-80
2021/06/11 07:44:40;;;;;;;16.13;9.52;;;20.60;99.90;;;;;;4968585;28;20118;-79
2021/06/11 07:47:06;;;;;;;12.95;9.38;;;20.50;99.90;;;;;;4970881;28;20041;-81
2021/06/11 07:49:32;;;;;;;12.00;8.45;;;20.30;99.90;;;;;;4970402;28;20019;-79
2021/06/11 07:51:58;;;;;;;14.13;9.40;;;20.40;99.90;;;;;;4985493;28;20042;-79
2021/06/11 07:54:24;;;;;;;9.60;7.47;;;20.60;99.90;;;;;;4969964;28;20476;-78
2021/06/11 07:56:49;;;;;;;12.80;8.48;;;20.60;99.90;;;;;;4967355;28;20030;-79
2021/06/11 07:59:15;;;;;;;11.07;9.15;;;20.80;99.90;;;;;;4970477;28;20035;-80
2021/06/11 08:01:41;;;;;;;13.38;9.02;;;21.00;99.90;;;;;;4969116;28;20506;-79
2021/06/11 08:04:07;;;;;;;12.45;8.90;;;21.00;99.90;;;;;;4969757;28;20420;-79
2021/06/11 08:06:33;;;;;;;11.60;8.45;;;20.80;99.90;;;;;;4973820;28;20030;-79
2021/06/11 08:08:58;;;;;;;13.30;8.82;;;21.30;99.90;;;;;;4969255;28;20027;-80
2021/06/11 08:11:24;;;;;;;12.18;7.55;;;21.30;99.90;;;;;;4968699;28;20057;-80
2021/06/11 08:13:50;;;;;;;11.05;8.65;;;21.60;99.90;;;;;;4970415;28;20085;-80
2021/06/11 08:16:15;;;;;;;14.52;8.50;;;22.00;99.90;;;;;;4969051;28;20162;-81
2021/06/11 08:18:41;;;;;;;9.88;7.88;;;22.30;99.90;;;;;;4969532;28;20543;-79
2021/06/11 08:21:07;;;;;;;11.90;7.45;;;22.10;99.90;;;;;;4969854;28;20173;-80
2021/06/11 08:23:32;;;;;;;11.60;8.48;;;21.90;99.90;;;;;;4973704;28;20027;-80
2021/06/11 08:25:58;;;;;;;9.45;6.07;;;21.90;99.90;;;;;;4972384;28;20034;-80
2021/06/11 08:28:23;;;;;;;10.52;5.82;;;21.80;99.90;;;;;;4973689;28;20471;-79
2021/06/11 08:30:49;;;;;;;11.73;5.97;;;21.70;99.90;;;;;;4973175;28;20030;-79
2021/06/11 08:33:14;;;;;;;12.43;7.68;;;21.90;99.90;;;;;;4974166;28;20479;-79
2021/06/11 08:35:40;;;;;;;10.50;6.53;;;22.20;99.90;;;;;;4972776;28;20062;-79
2021/06/11 08:38:06;;;;;;;8.68;5.57;;;22.30;99.90;;;;;;4973785;28;20049;-80
2021/06/11 08:40:32;;;;;;;10.88;6.25;;;22.40;99.90;;;;;;4973007;28;20030;-80
2021/06/11 08:42:58;;;;;;;14.40;6.97;;;22.40;99.90;;;;;;4972858;28;20487;-80
2021/06/11 08:45:24;;;;;;;10.70;6.43;;;22.20;99.90;;;;;;4972554;28;20058;-81
2021/06/11 08:47:52;;;;;;;9.48;6.10;;;22.00;99.90;;;;;;4973387;28;20018;-80
2021/06/11 08:50:27;;;;;;;8.88;6.20;;;22.00;99.90;;;;;;4973987;28;20034;-80
2021/06/11 08:52:54;;;;;;;8.07;5.78;;;22.20;99.90;;;;;;4988935;28;20560;-80
2021/06/11 08:55:20;;;;;;;9.95;6.20;;;22.40;99.90;;;;;;4973649;28;20106;-79
2021/06/11 08:57:45;;;;;;;8.15;5.10;;;22.60;99.90;;;;;;4972349;28;20031;-81
2021/06/11 09:00:12;;;;;;;15.07;6.07;;;22.90;99.90;;;;;;4972696;28;20042;-83
2021/06/11 09:03:32;;;;;;;11.57;5.78;;;23.30;99.90;;;;;;4972387;28;20058;-81
2021/06/11 09:06:01;;;;;;;8.63;5.63;;;23.60;99.90;;;;;;4973297;28;20554;-82
2021/06/11 09:08:28;;;;;;;12.07;7.63;;;23.70;99.90;;;;;;4973583;28;20046;-82
2021/06/11 09:11:08;;;;;;;12.73;7.70;;;23.50;99.90;;;;;;4973093;28;20023;-81
2021/06/11 09:13:34;;;;;;;7.40;5.43;;;23.10;99.90;;;;;;4973633;28;20456;-82
2021/06/11 09:16:10;;;;;;;8.82;6.75;;;23.00;99.90;;;;;;4972158;28;20058;-81
2021/06/11 09:19:05;;;;;;;9.40;6.95;;;23.50;99.90;;;;;;4972568;28;20402;-81
2021/06/11 09:21:45;;;;;;;8.93;7.63;;;23.40;99.90;;;;;;4971180;28;20043;-81
2021/06/11 09:24:21;;;;;;;15.38;8.05;;;23.00;99.90;;;;;;4971632;28;20026;-82
2021/06/11 09:27:10;;;;;;;8.20;5.70;;;23.10;99.90;;;;;;4973267;28;20055;-81
2021/06/11 09:29:42;;;;;;;8.27;5.45;;;23.20;99.90;;;;;;4971985;28;20026;-81
2021/06/11 09:32:26;;;;;;;6.68;5.47;;;23.30;99.90;;;;;;4972028;28;20507;-81
2021/06/11 09:34:57;;;;;;;19.92;7.57;;;22.90;99.90;;;;;;4972300;28;20039;-81
2021/06/11 09:37:27;;;;;;;8.02;6.63;;;22.60;99.90;;;;;;4973316;28;20098;-81
2021/06/11 09:40:10;;;;;;;7.80;5.65;;;22.60;99.90;;;;;;4973149;28;20034;-82
2021/06/11 09:42:45;;;;;;;14.15;7.03;;;22.50;99.90;;;;;;4972062;28;20031;-81
2021/06/11 09:45:12;;;;;;;13.45;7.95;;;22.70;99.90;;;;;;4972675;28;20038;-81
2021/06/11 09:47:45;;;;;;;8.18;6.68;;;22.60;99.90;;;;;;4972932;28;20018;-81
2021/06/11 09:50:15;;;;;;;12.80;6.17;;;22.60;99.90;;;;;;4973152;28;20097;-81
2021/06/11 09:52:52;;;;;;;9.73;6.22;;;23.00;99.90;;;;;;4971670;28;20031;-81
2021/06/11 09:55:24;;;;;;;15.45;7.25;;;23.10;99.90;;;;;;4972520;28;20034;-81
2021/06/11 09:58:10;;;;;;;11.37;7.23;;;23.30;99.90;;;;;;4973045;28;20072;-81
2021/06/11 10:00:53;;;;;;;9.23;6.05;;;23.70;99.90;;;;;;4972973;28;20270;-82
2021/06/11 10:03:37;;;;;;;8.55;4.93;;;24.00;99.90;;;;;;4973108;28;20046;-82
2021/06/11 10:06:07;;;;;;;10.93;5.30;;;23.90;99.90;;;;;;4972093;28;20031;-80
2021/06/11 10:08:35;;;;;;;7.55;5.65;;;24.00;99.90;;;;;;4987951;28;20023;-79
2021/06/11 10:11:03;;;;;;;8.07;4.88;;;24.10;99.90;;;;;;4972846;28;20019;-79
2021/06/11 10:13:30;;;;;;;9.38;5.25;;;24.60;99.90;;;;;;4972846;28;20403;-82
2021/06/11 10:15:58;;;;;;;9.50;4.95;;;24.70;99.90;;;;;;4972962;28;20034;-81
2021/06/11 10:18:24;;;;;;;6.78;3.70;;;24.50;99.90;;;;;;4972503;28;20486;-81
2021/06/11 10:20:51;;;;;;;6.47;3.95;;;24.30;99.90;;;;;;4967814;28;20038;-83
2021/06/11 10:23:20;;;;;;;7.05;3.67;;;24.20;99.90;;;;;;4968955;28;20102;-82
2021/06/11 10:25:51;;;;;;;8.48;5.13;;;23.90;99.90;;;;;;4967674;28;20084;-81
2021/06/11 10:28:24;;;;;;;7.65;4.30;;;24.10;99.90;;;;;;4967279;28;20038;-82
2021/06/11 10:30:58;;;;;;;6.55;4.57;;;23.80;99.90;;;;;;4968635;28;20067;-82
2021/06/11 10:33:51;;;;;;;8.63;6.88;;;23.70;99.90;;;;;;4976377;28;20101;-81
2021/06/11 10:36:30;;;;;;;7.90;5.93;;;23.80;99.90;;;;;;4968559;28;20471;-82
2021/06/11 10:39:00;;;;;;;11.63;9.02;;;23.90;99.90;;;;;;4968141;28;20045;-81
2021/06/11 10:41:28;;;;;;;9.27;7.55;;;23.80;99.90;;;;;;4966635;28;20487;-80
2021/06/11 10:43:54;;;;;;;15.70;8.55;;;23.60;99.90;;;;;;4968354;28;20051;-81
2021/06/11 10:46:24;;;;;;;11.57;8.50;;;23.40;99.90;;;;;;4970463;28;20110;-80
2021/06/11 10:48:55;;;;;;;11.73;9.00;;;23.60;99.90;;;;;;4980484;28;20479;-79
2021/06/11 10:51:39;;;;;;;15.25;9.98;;;23.50;99.90;;;;;;4970208;28;20027;-79
2021/06/11 10:54:23;;;;;;;13.43;9.45;;;23.60;99.90;;;;;;4972460;28;20027;-81
2021/06/11 10:56:58;;;;;;;12.02;9.43;;;23.80;99.90;;;;;;4967415;28;20054;-80
2021/06/11 10:59:50;;;;;;;14.50;9.02;;;24.00;99.90;;;;;;4971822;28;20478;-81
2021/06/11 11:02:17;;;;;;;16.52;12.05;;;24.00;99.90;;;;;;4970948;28;20121;-81
2021/06/11 11:04:48;;;;;;;19.50;12.98;;;24.10;99.90;;;;;;4971742;28;20038;-80
2021/06/11 11:07:23;;;;;;;16.20;11.88;;;23.90;99.90;;;;;;4972988;28;20022;-81
2021/06/11 11:09:54;;;;;;;21.60;14.90;;;24.00;99.90;;;;;;4971712;28;20035;-81
2021/06/11 11:12:20;;;;;;;20.58;14.40;;;23.70;99.90;;;;;;4965337;28;20030;-80
2021/06/11 11:14:47;;;;;;;16.70;12.82;;;23.60;99.90;;;;;;4990561;28;20033;-80
2021/06/11 11:17:13;;;;;;;17.50;11.77;;;23.60;99.90;;;;;;4990594;28;20031;-81
2021/06/11 11:19:51;;;;;;;17.92;13.73;;;24.00;99.90;;;;;;4990754;28;20106;-78
2021/06/11 11:22:27;;;;;;;22.05;15.32;;;23.90;99.90;;;;;;4975380;28;20488;-78
2021/06/11 11:24:54;;;;;;;25.77;15.65;;;23.70;99.90;;;;;;4975437;28;20476;-78
2021/06/11 11:27:20;;;;;;;18.98;11.38;;;23.40;99.90;;;;;;4975614;28;20502;-79
2021/06/11 11:29:46;;;;;;;18.88;11.52;;;23.80;99.90;;;;;;4975449;28;20027;-78
2021/06/11 11:32:12;;;;;;;15.98;8.30;;;24.10;99.90;;;;;;4975327;28;20046;-79
2021/06/11 11:34:37;;;;;;;15.07;10.02;;;24.10;99.90;;;;;;4975209;28;20027;-78
2021/06/11 11:37:03;;;;;;;20.15;10.73;;;24.00;99.90;;;;;;4975432;28;20051;-79
2021/06/11 11:39:29;;;;;;;15.80;10.00;;;24.20;99.90;;;;;;4975240;28;20031;-80
2021/06/11 11:41:56;;;;;;;19.02;11.98;;;24.30;99.90;;;;;;4990474;28;20026;-79
2021/06/11 11:44:22;;;;;;;17.15;11.05;;;24.00;99.90;;;;;;4974722;28;20037;-78
2021/06/11 11:46:47;;;;;;;19.95;12.10;;;24.20;99.90;;;;;;4975306;28;20035;-79
2021/06/11 11:49:13;;;;;;;23.55;14.65;;;24.10;99.90;;;;;;4975009;28;20081;-79
2021/06/11 11:51:38;;;;;;;23.30;17.23;;;24.40;99.90;;;;;;4974206;28;20125;-80
2021/06/11 11:54:05;;;;;;;22.42;14.15;;;24.60;99.90;;;;;;4968895;28;20066;-80
2021/06/11 11:56:31;;;;;;;23.48;11.93;;;24.80;99.90;;;;;;4966934;28;20642;-79
2021/06/11 11:58:56;;;;;;;17.48;9.82;;;25.00;99.90;;;;;;4969527;28;20034;-79
2021/06/11 12:01:22;;;;;;;17.85;9.43;;;25.20;99.90;;;;;;4971086;28;20050;-81
2021/06/11 12:03:47;;;;;;;15.70;10.10;;;24.80;99.90;;;;;;4970515;28;20503;-81
2021/06/11 12:06:13;;;;;;;17.15;10.13;;;25.00;99.90;;;;;;4970015;28;20027;-79
2021/06/11 12:08:39;;;;;;;14.02;9.10;;;25.10;99.90;;;;;;4971199;28;20098;-80
2021/06/11 12:11:04;;;;;;;11.45;8.07;;;25.00;99.90;;;;;;4970781;28;20046;-80
2021/06/11 12:13:30;;;;;;;10.40;7.28;;;25.00;99.90;;;;;;4969730;28;20626;-81
2021/06/11 12:15:56;;;;;;;10.75;7.22;;;25.70;99.90;;;;;;4970427;28;20030;-79
2021/06/11 12:18:21;;;;;;;16.58;11.05;;;26.00;99.90;;;;;;4970081;28;20045;-81
2021/06/11 12:20:47;;;;;;;17.95;11.43;;;26.00;99.90;;;;;;4970761;28;20471;-79
2021/06/11 12:23:13;;;;;;;17.30;11.43;;;25.70;99.90;;;;;;4969682;28;20019;-79
2021/06/11 12:25:38;;;;;;;21.08;11.30;;;24.90;99.90;;;;;;4968500;28;20026;-80
2021/06/11 12:28:04;;;;;;;17.70;10.63;;;24.90;99.90;;;;;;4969096;28;20369;-79
2021/06/11 12:30:29;;;;;;;17.48;11.75;;;24.30;99.90;;;;;;4970462;28;20042;-80
2021/06/11 12:32:56;;;;;;;24.33;14.73;;;24.10;99.90;;;;;;4971979;28;20033;-78
2021/06/11 12:35:22;;;;;;;30.60;17.80;;;24.40;99.90;;;;;;4972809;28;20027;-80
2021/06/11 12:37:51;;;;;;;27.17;17.83;;;24.00;99.90;;;;;;4970196;28;20034;-78